createdAt,value
2022-10-17T00:01:10.633Z,99973.63
2022-10-17T00:03:40.309Z,99970.77
2022-10-17T00:06:12.608Z,99975.23
2022-10-17T00:08:41.535Z,99974.96
2022-10-17T00:11:18.754Z,99973.51
2022-10-17T00:13:48.261Z,99976.95
2022-10-17T00:16:24.161Z,99975.66
2022-10-17T00:18:52.521Z,99979.94
2022-10-17T00:21:22.011Z,99983.98
2022-10-17T00:23:50.949Z,99983.04
2022-10-17T00:26:19.592Z,99978.61
2022-10-17T00:28:49.001Z,99978.21
2022-10-17T00:31:19.119Z,99978.82
2022-10-17T00:33:47.930Z,99980.19
2022-10-17T00:36:22.832Z,99985.80
2022-10-17T00:38:54.422Z,99990.19
2022-10-17T00:41:30.127Z,99988.95
2022-10-17T00:44:01.795Z,99992.89
2022-10-17T00:46:35.649Z,99996.73
2022-10-17T00:49:08.292Z,100002.59
2022-10-17T00:51:59.083Z,100003.98
2022-10-17T00:54:53.994Z,100006.28
2022-10-17T00:57:22.461Z,100008.03
2022-10-17T00:59:54.807Z,100013.48
2022-10-17T01:02:24.659Z,100015.52
2022-10-17T01:04:55.847Z,100012.96
2022-10-17T01:07:23.992Z,100017.48
2022-10-17T01:09:52.319Z,100012.52
2022-10-17T01:12:27.485Z,100011.12
2022-10-17T01:15:14.495Z,100008.61
2022-10-17T01:18:01.377Z,100005.52
2022-10-17T01:20:48.322Z,100009.86
2022-10-17T01:23:44.245Z,100009.75
2022-10-17T01:26:31.333Z,100007.17
2022-10-17T01:29:18.322Z,100006.27
2022-10-17T01:31:59.481Z,100004.48
2022-10-17T01:34:36.076Z,100007.05
2022-10-17T01:37:07.017Z,100005.52
2022-10-17T01:39:59.075Z,100005.16
2022-10-17T01:42:33.075Z,100003.85
2022-10-17T01:45:11.775Z,100002.06
2022-10-17T01:47:42.177Z,100002.16
2022-10-17T01:50:31.450Z,100000.46
2022-10-17T01:53:08.734Z,100000.29
2022-10-17T01:55:41.140Z,100000.09
2022-10-17T01:58:32.415Z,99993.55
2022-10-17T02:05:41.523Z,99991.40
2022-10-17T02:08:11.774Z,99996.08
2022-10-17T02:10:46.771Z,99997.94
2022-10-17T02:13:30.021Z,99998.44
2022-10-17T02:16:16.487Z,99998.27
2022-10-17T02:19:12.784Z,99998.90
2022-10-17T02:21:55.660Z,99995.17
2022-10-17T02:24:42.355Z,99993.70
2022-10-17T02:27:16.634Z,99993.30
2022-10-17T02:29:50.443Z,99989.88
2022-10-17T02:32:28.254Z,99994.84
2022-10-17T02:34:58.464Z,99996.70
2022-10-17T02:37:30.692Z,99992.19
2022-10-17T02:40:01.257Z,99989.59
2022-10-17T02:42:31.236Z,99992.60
2022-10-17T02:45:01.450Z,99993.97
2022-10-17T02:47:36.758Z,99990.24
2022-10-17T02:50:05.406Z,99994.42
2022-10-17T02:52:52.511Z,99998.36
2022-10-17T02:55:33.705Z,100003.05
2022-10-17T02:58:11.861Z,100005.09
2022-10-17T03:00:41.257Z,100008.27
2022-10-17T03:03:21.624Z,100014.64
2022-10-17T03:05:49.876Z,100017.00
2022-10-17T03:08:18.629Z,100018.11
2022-10-17T03:10:46.870Z,100020.60
2022-10-17T03:13:15.912Z,100026.17
2022-10-17T03:15:44.073Z,100034.03
2022-10-17T03:18:12.364Z,100036.02
2022-10-17T03:20:40.346Z,100041.87
2022-10-17T03:23:08.460Z,100040.58
2022-10-17T03:25:37.588Z,100044.39
2022-10-17T03:28:06.428Z,100048.48
2022-10-17T03:30:34.590Z,100052.39
2022-10-17T03:33:02.581Z,100055.64
2022-10-17T03:35:30.645Z,100057.59
2022-10-17T03:38:00.046Z,100053.91
2022-10-17T03:40:28.339Z,100053.27
2022-10-17T03:42:57.243Z,100049.20
2022-10-17T03:45:25.426Z,100044.52
2022-10-17T03:47:54.078Z,100045.02
2022-10-17T03:50:22.127Z,100041.44
2022-10-17T03:52:50.338Z,100038.08
2022-10-17T03:55:18.410Z,100035.89
2022-10-17T03:57:47.081Z,100038.91
2022-10-17T04:00:15.833Z,100036.14
2022-10-17T04:02:45.054Z,100038.91
2022-10-17T04:05:18.137Z,100040.11
2022-10-17T04:07:47.326Z,100044.99
2022-10-17T04:10:16.201Z,100053.70
2022-10-17T04:12:44.641Z,100062.30
2022-10-17T04:15:13.207Z,100062.17
2022-10-17T04:17:41.535Z,100064.32
2022-10-17T04:20:10.665Z,100066.92
2022-10-17T04:22:38.765Z,100067.54
2022-10-17T04:25:06.994Z,100070.01
2022-10-17T04:27:37.566Z,100066.99
2022-10-17T04:30:05.999Z,100061.21
2022-10-17T04:32:39.196Z,100059.84
2022-10-17T04:35:21.137Z,100059.83
2022-10-17T04:37:53.187Z,100059.16
2022-10-17T04:40:21.709Z,100058.23
2022-10-17T04:42:50.224Z,100059.63
2022-10-17T04:45:20.527Z,100058.63
2022-10-17T04:47:49.450Z,100058.91
2022-10-17T04:50:17.480Z,100066.63
2022-10-17T04:53:01.577Z,100068.10
2022-10-17T04:55:29.592Z,100076.23
2022-10-17T04:57:58.032Z,100081.50
2022-10-17T05:00:26.317Z,100083.56
2022-10-17T05:03:02.180Z,100085.63
2022-10-17T05:05:31.046Z,100087.65
2022-10-17T05:07:59.209Z,100083.02
2022-10-17T05:10:37.232Z,100084.04
2022-10-17T05:13:06.273Z,100083.61
2022-10-17T05:15:35.393Z,100085.64
2022-10-17T05:18:04.822Z,100084.88
2022-10-17T05:20:33.430Z,100084.51
2022-10-17T05:23:02.274Z,100085.16
2022-10-17T05:25:34.662Z,100084.00
2022-10-17T05:28:02.728Z,100086.98
2022-10-17T05:30:35.179Z,100086.10
2022-10-17T05:33:06.277Z,100089.63
2022-10-17T05:35:35.339Z,100089.23
2022-10-17T05:38:03.526Z,100093.98
2022-10-17T05:40:32.323Z,100093.58
2022-10-17T05:43:00.424Z,100099.33
2022-10-17T05:45:28.492Z,100102.20
2022-10-17T05:47:57.662Z,100104.07
2022-10-17T05:50:25.917Z,100104.52
2022-10-17T05:53:04.069Z,100107.43
2022-10-17T05:55:33.259Z,100110.22
2022-10-17T05:58:01.985Z,100114.55
2022-10-17T06:00:33.366Z,100123.70
2022-10-17T06:03:02.230Z,100127.05
2022-10-17T06:05:30.448Z,100129.04
2022-10-17T06:08:01.822Z,100130.31
2022-10-17T06:10:32.009Z,100126.74
2022-10-17T06:13:00.668Z,100129.20
2022-10-17T06:15:28.789Z,100134.06
2022-10-17T06:18:02.654Z,100137.21
2022-10-17T06:20:30.613Z,100137.23
2022-10-17T06:22:59.626Z,100139.75
2022-10-17T06:25:43.736Z,100146.65
2022-10-17T06:28:12.839Z,100148.64
2022-10-17T06:30:41.598Z,100147.04
2022-10-17T06:33:10.047Z,100153.61
2022-10-17T06:35:38.123Z,100162.14
2022-10-17T06:38:06.571Z,100163.65
2022-10-17T06:40:36.132Z,100158.72
2022-10-17T06:43:04.116Z,100161.79
2022-10-17T06:48:35.382Z,100154.45
2022-10-17T06:51:15.424Z,100152.08
2022-10-17T06:53:50.485Z,100153.00
2022-10-17T06:56:51.101Z,100160.06
2022-10-17T06:59:28.156Z,100164.96
2022-10-17T07:02:02.968Z,100167.08
2022-10-17T07:04:31.592Z,100170.67
2022-10-17T07:07:03.101Z,100172.77
2022-10-17T07:09:33.074Z,100180.44
2022-10-17T07:12:01.092Z,100183.97
2022-10-17T07:14:32.195Z,100184.50
2022-10-17T07:17:02.217Z,100186.46
2022-10-17T07:19:33.110Z,100186.00
2022-10-17T07:22:01.076Z,100185.36
2022-10-17T07:24:29.465Z,100189.31
2022-10-17T07:27:15.964Z,100192.67
2022-10-17T07:29:44.042Z,100200.25
2022-10-17T07:32:18.969Z,100204.45
2022-10-17T07:34:47.055Z,100208.72
2022-10-17T07:37:15.255Z,100212.27
2022-10-17T07:39:49.605Z,100217.47
2022-10-17T07:42:17.703Z,100220.99
2022-10-17T07:44:47.551Z,100224.45
2022-10-17T07:47:16.137Z,100221.11
2022-10-17T07:49:46.752Z,100218.25
2022-10-17T07:52:15.924Z,100217.43
2022-10-17T07:54:44.367Z,100211.86
2022-10-17T07:57:13.362Z,100211.11
2022-10-17T07:59:41.401Z,100208.70
2022-10-17T08:02:20.683Z,100208.33
2022-10-17T08:04:48.656Z,100209.05
2022-10-17T08:07:23.254Z,100210.46
2022-10-17T08:09:53.560Z,100217.39
2022-10-17T08:12:22.062Z,100216.52
2022-10-17T08:14:50.332Z,100218.34
2022-10-17T08:17:18.464Z,100216.90
2022-10-17T08:19:46.734Z,100220.19
2022-10-17T08:22:14.742Z,100224.48
2022-10-17T08:24:43.005Z,100224.18
2022-10-17T08:27:13.515Z,100224.56
2022-10-17T08:29:41.456Z,100224.77
2022-10-17T08:32:10.201Z,100227.63
2022-10-17T08:34:38.932Z,100223.01
2022-10-17T08:37:06.938Z,100219.52
2022-10-17T08:39:34.998Z,100217.95
2022-10-17T08:42:09.109Z,100213.73
2022-10-17T08:44:57.791Z,100213.63
2022-10-17T08:47:35.733Z,100215.74
2022-10-17T08:50:07.131Z,100221.52
2022-10-17T08:52:54.225Z,100218.09
2022-10-17T08:55:45.310Z,100212.05
2022-10-17T08:58:35.591Z,100212.77
2022-10-17T09:01:19.831Z,100207.22
2022-10-17T09:04:14.856Z,100202.66
2022-10-17T09:07:09.137Z,100198.89
2022-10-17T09:09:40.364Z,100201.93
2022-10-17T09:12:29.584Z,100200.37
2022-10-17T09:15:29.722Z,100201.90
2022-10-17T09:18:05.626Z,100202.20
2022-10-17T09:20:51.846Z,100206.20
2022-10-17T09:23:30.397Z,100205.96
2022-10-17T09:26:01.289Z,100212.35
2022-10-17T09:28:37.276Z,100206.54
2022-10-17T09:31:19.048Z,100206.43
2022-10-17T09:33:54.395Z,100211.50
2022-10-17T09:36:28.192Z,100214.38
2022-10-17T09:38:59.918Z,100207.59
2022-10-17T09:41:46.624Z,100211.64
2022-10-17T09:44:17.365Z,100209.75
2022-10-17T09:47:13.355Z,100210.33
2022-10-17T09:49:47.801Z,100212.63
2022-10-17T09:52:32.139Z,100210.70
2022-10-17T09:55:11.890Z,100210.38
2022-10-17T09:57:59.883Z,100208.52
2022-10-17T10:00:30.257Z,100207.79
2022-10-17T10:03:13.991Z,100206.17
2022-10-17T10:05:43.677Z,100209.67
2022-10-17T10:08:22.812Z,100207.82
2022-10-17T10:10:58.850Z,100212.91
2022-10-17T10:13:27.490Z,100211.30
2022-10-17T10:16:14.617Z,100208.44
2022-10-17T10:18:45.466Z,100205.84
2022-10-17T10:21:24.489Z,100204.61
2022-10-17T10:24:12.506Z,100203.52
2022-10-17T10:26:45.266Z,100203.09
2022-10-17T10:29:22.583Z,100202.30
2022-10-17T10:31:54.104Z,100200.59
2022-10-17T10:34:31.351Z,100198.87
2022-10-17T10:37:17.462Z,100200.89
2022-10-17T10:39:53.082Z,100201.39
2022-10-17T10:42:23.391Z,100204.66
2022-10-17T10:44:53.967Z,100205.64
2022-10-17T10:47:27.224Z,100205.15
2022-10-17T10:50:21.324Z,100196.77
2022-10-17T10:53:21.750Z,100197.34
2022-10-17T10:56:00.994Z,100196.01
2022-10-17T10:58:47.515Z,100194.77
2022-10-17T11:01:27.991Z,100194.17
2022-10-17T11:04:33.438Z,100192.23
2022-10-17T11:07:34.589Z,100191.17
2022-10-17T11:10:30.872Z,100189.92
2022-10-17T11:13:26.545Z,100189.34
2022-10-17T11:16:16.459Z,100183.19
2022-10-17T11:18:55.137Z,100184.11
2022-10-17T11:21:57.066Z,100183.80
2022-10-17T11:24:30.040Z,100184.30
2022-10-17T11:27:05.086Z,100183.83
2022-10-17T11:29:36.821Z,100183.45
2022-10-17T11:32:21.244Z,100176.48
2022-10-17T11:34:53.665Z,100173.67
2022-10-17T11:37:27.885Z,100176.03
2022-10-17T11:40:02.400Z,100173.79
2022-10-17T11:42:36.288Z,100174.39
2022-10-17T11:45:20.223Z,100174.95
2022-10-17T11:47:59.001Z,100174.95
2022-10-17T11:53:31.456Z,100179.70
2022-10-17T11:56:02.052Z,100176.19
2022-10-17T11:58:33.102Z,100180.85
2022-10-17T12:01:33.760Z,100181.28
2022-10-17T12:04:14.223Z,100182.37
2022-10-17T12:07:04.319Z,100184.89
2022-10-17T12:09:32.476Z,100179.21
2022-10-17T12:12:02.786Z,100179.15
2022-10-17T12:14:34.386Z,100173.09
2022-10-17T12:17:03.910Z,100170.27
2022-10-17T12:19:38.312Z,100168.61
2022-10-17T12:22:19.601Z,100164.59
2022-10-17T12:24:53.628Z,100167.52
2022-10-17T12:27:36.162Z,100169.66
2022-10-17T12:30:11.916Z,100165.55
2022-10-17T12:33:07.084Z,100162.45
2022-10-17T12:35:38.456Z,100161.95
2022-10-17T12:38:18.950Z,100160.38
2022-10-17T12:40:53.044Z,100160.31
2022-10-17T12:43:30.089Z,100159.39
2022-10-17T12:46:03.203Z,100155.84
2022-10-17T12:48:34.603Z,100156.17
2022-10-17T12:51:34.341Z,100151.48
2022-10-17T12:54:02.648Z,100154.86
2022-10-17T12:56:38.636Z,100156.77
2022-10-17T12:59:25.572Z,100155.58
2022-10-17T13:02:00.049Z,100155.64
2022-10-17T13:04:30.992Z,100156.23
2022-10-17T13:07:01.174Z,100153.79
2022-10-17T13:09:32.579Z,100153.11
2022-10-17T13:12:05.627Z,100153.34
2022-10-17T13:14:34.246Z,100154.41
2022-10-17T13:17:05.579Z,100157.20
2022-10-17T13:19:45.096Z,100155.02
2022-10-17T13:22:18.181Z,100158.40
2022-10-17T13:24:46.854Z,100157.63
2022-10-17T13:27:25.571Z,100155.30
2022-10-17T13:29:56.515Z,100152.29
2022-10-17T13:32:27.171Z,100152.39
2022-10-17T13:35:07.640Z,100151.52
2022-10-17T13:37:37.137Z,100148.02
2022-10-17T13:40:22.968Z,100147.91
2022-10-17T13:42:57.414Z,100145.46
2022-10-17T13:45:29.403Z,100144.91
2022-10-17T13:48:05.079Z,100142.01
2022-10-17T13:50:45.038Z,100142.99
2022-10-17T13:53:19.559Z,100146.85
2022-10-17T13:56:15.773Z,100144.38
2022-10-17T13:58:46.893Z,100148.54
2022-10-17T14:01:15.801Z,100143.16
2022-10-17T14:03:48.772Z,100139.61
2022-10-17T14:06:30.092Z,100141.62
2022-10-17T14:09:07.672Z,100135.96
2022-10-17T14:11:41.993Z,100133.77
2022-10-17T14:14:26.464Z,100138.84
2022-10-17T14:16:55.194Z,100131.89
2022-10-17T14:19:34.154Z,100129.33
2022-10-17T14:22:20.807Z,100129.04
2022-10-17T14:24:50.945Z,100128.71
2022-10-17T14:27:42.571Z,100128.81
2022-10-17T14:30:51.578Z,100125.21
2022-10-17T14:33:19.187Z,100122.27
2022-10-17T14:35:55.850Z,100118.90
2022-10-17T14:38:25.096Z,100118.66
2022-10-17T14:41:29.644Z,100118.67
2022-10-17T14:44:03.603Z,100113.27
2022-10-17T14:46:32.037Z,100106.33
2022-10-17T14:49:14.834Z,100107.52
2022-10-17T14:52:28.493Z,100100.20
2022-10-17T14:54:58.378Z,100094.20
2022-10-17T14:57:34.499Z,100094.66
2022-10-17T15:00:03.571Z,100092.89
2022-10-17T15:02:32.241Z,100093.98
2022-10-17T15:05:00.444Z,100096.13
2022-10-17T15:07:29.637Z,100097.14
2022-10-17T15:09:57.638Z,100097.27
2022-10-17T15:12:26.079Z,100099.80
2022-10-17T15:14:54.545Z,100102.76
2022-10-17T15:17:26.612Z,100108.46
2022-10-17T15:19:55.639Z,100106.14
2022-10-17T15:22:24.236Z,100107.83
2022-10-17T15:24:52.435Z,100110.16
2022-10-17T15:27:22.879Z,100110.76
2022-10-17T15:29:53.188Z,100107.76
2022-10-17T15:32:21.269Z,100104.05
2022-10-17T15:34:49.517Z,100107.46
2022-10-17T15:37:22.075Z,100107.55
2022-10-17T15:39:54.721Z,100111.80
2022-10-17T15:42:28.307Z,100114.66
2022-10-17T15:44:57.507Z,100109.63
2022-10-17T15:47:31.481Z,100111.61
2022-10-17T15:50:01.297Z,100107.68
2022-10-17T15:52:29.655Z,100103.88
2022-10-17T15:54:59.711Z,100103.44
2022-10-17T15:57:34.466Z,100107.35
2022-10-17T16:00:02.581Z,100108.84
2022-10-17T16:02:37.649Z,100109.77
2022-10-17T16:05:23.543Z,100110.54
2022-10-17T16:07:56.028Z,100107.67
2022-10-17T16:10:25.547Z,100113.06
2022-10-17T16:12:53.954Z,100112.35
2022-10-17T16:15:28.066Z,100114.39
2022-10-17T16:18:00.452Z,100115.30
2022-10-17T16:20:31.851Z,100115.27
2022-10-17T16:23:02.982Z,100119.39
2022-10-17T16:25:32.624Z,100116.82
2022-10-17T16:28:00.892Z,100119.41
2022-10-17T16:30:31.083Z,100116.27
2022-10-17T16:32:59.134Z,100115.02
2022-10-17T16:35:33.304Z,100112.13
2022-10-17T16:38:06.329Z,100106.25
2022-10-17T16:40:34.467Z,100108.40
2022-10-17T16:43:02.524Z,100105.54
2022-10-17T16:45:30.892Z,100105.94
2022-10-17T16:47:58.987Z,100106.61
2022-10-17T16:50:27.087Z,100103.73
2022-10-17T16:52:55.168Z,100100.85
2022-10-17T16:55:23.240Z,100100.42
2022-10-17T16:57:52.010Z,100099.39
2022-10-17T17:00:20.441Z,100098.05
2022-10-17T17:02:48.906Z,100097.34
2022-10-17T17:05:17.015Z,100094.79
2022-10-17T17:07:45.620Z,100098.97
2022-10-17T17:10:13.583Z,100097.61
2022-10-17T17:12:41.526Z,100096.31
2022-10-17T17:15:09.660Z,100096.20
2022-10-17T17:17:49.632Z,100100.64
2022-10-17T17:20:21.938Z,100103.79
2022-10-17T17:22:50.896Z,100103.65
2022-10-17T17:25:19.114Z,100105.36
2022-10-17T17:27:47.262Z,100107.60
2022-10-17T17:30:15.783Z,100108.27
2022-10-17T17:32:46.767Z,100103.32
2022-10-17T17:35:15.022Z,100103.02
2022-10-17T17:37:43.168Z,100104.14
2022-10-17T17:40:11.635Z,100107.31
2022-10-17T17:42:39.998Z,100107.85
2022-10-17T17:45:08.636Z,100105.54
2022-10-17T17:47:36.589Z,100106.77
2022-10-17T17:50:05.515Z,100104.58
2022-10-17T17:52:33.544Z,100102.69
2022-10-17T17:55:01.739Z,100100.98
2022-10-17T17:57:30.391Z,100105.27
2022-10-17T17:59:58.574Z,100103.11
2022-10-17T18:02:26.696Z,100108.32
2022-10-17T18:04:55.515Z,100103.39
2022-10-17T18:07:24.222Z,100102.22
2022-10-17T18:09:52.351Z,100111.68
2022-10-17T18:12:20.862Z,100109.50
2022-10-17T18:14:49.111Z,100112.18
2022-10-17T18:17:17.107Z,100108.15
2022-10-17T18:19:45.169Z,100108.03
2022-10-17T18:22:13.235Z,100107.02
2022-10-17T18:24:41.529Z,100106.47
2022-10-17T18:27:09.679Z,100107.29
2022-10-17T18:29:37.606Z,100105.86
2022-10-17T18:32:05.805Z,100103.02
2022-10-17T18:34:33.871Z,100101.10
2022-10-17T18:37:02.717Z,100099.75
2022-10-17T18:39:30.669Z,100093.52
2022-10-17T18:41:58.961Z,100102.34
2022-10-17T18:44:27.203Z,100098.98
2022-10-17T18:46:58.550Z,100101.50
2022-10-17T18:49:29.867Z,100102.93
2022-10-17T18:51:59.707Z,100101.67
2022-10-17T18:54:29.311Z,100099.67
2022-10-17T18:56:57.698Z,100098.61
2022-10-17T18:59:25.826Z,100095.70
2022-10-17T19:01:53.910Z,100091.62
2022-10-17T19:04:22.890Z,100094.75
2022-10-17T19:06:50.866Z,100097.17
2022-10-17T19:09:19.351Z,100097.77
2022-10-17T19:11:47.533Z,100098.95
2022-10-17T19:14:15.859Z,100101.65
2022-10-17T19:16:49.822Z,100100.13
2022-10-17T19:19:25.514Z,100097.95
2022-10-17T19:21:53.769Z,100099.94
2022-10-17T19:24:25.232Z,100095.66
2022-10-17T19:26:55.806Z,100093.40
2022-10-17T19:29:31.167Z,100091.02
2022-10-17T19:32:00.568Z,100086.39
2022-10-17T19:34:29.023Z,100083.84
2022-10-17T19:36:57.240Z,100082.83
2022-10-17T19:39:26.643Z,100081.11
2022-10-17T19:41:54.773Z,100082.11
2022-10-17T19:44:22.847Z,100079.51
2022-10-17T19:46:50.886Z,100077.88
2022-10-17T19:49:18.842Z,100074.11
2022-10-17T19:51:46.883Z,100072.83
2022-10-17T19:54:18.538Z,100072.71
2022-10-17T19:56:47.308Z,100072.48
2022-10-17T19:59:16.901Z,100068.55
2022-10-17T20:01:46.462Z,100076.18
2022-10-17T20:04:14.691Z,100074.00
2022-10-17T20:06:42.769Z,100074.02
2022-10-17T20:09:16.760Z,100072.58
2022-10-17T20:11:45.859Z,100072.17
2022-10-17T20:14:13.852Z,100067.84
2022-10-17T20:16:44.921Z,100067.49
2022-10-17T20:19:13.843Z,100067.89
2022-10-17T20:21:42.852Z,100062.70
2022-10-17T20:24:14.483Z,100064.98
2022-10-17T20:26:43.023Z,100063.15
2022-10-17T20:29:15.657Z,100063.83
2022-10-17T20:31:45.915Z,100062.66
2022-10-17T20:34:15.328Z,100064.04
2022-10-17T20:36:43.933Z,100061.98
2022-10-17T20:39:14.284Z,100064.64
2022-10-17T20:41:43.576Z,100059.45
2022-10-17T20:44:12.294Z,100057.11
2022-10-17T20:46:45.236Z,100055.33
2022-10-17T20:49:26.716Z,100052.91
2022-10-17T20:51:54.792Z,100050.30
2022-10-17T20:54:23.048Z,100049.17
2022-10-17T20:56:51.557Z,100047.02
2022-10-17T20:59:20.851Z,100045.70
2022-10-17T21:01:49.065Z,100040.69
2022-10-17T21:07:06.163Z,100039.17
2022-10-17T21:09:34.313Z,100037.75
2022-10-17T21:12:05.157Z,100041.13
2022-10-17T21:14:33.646Z,100037.04
2022-10-17T21:17:05.096Z,100042.19
2022-10-17T21:19:33.958Z,100035.52
2022-10-17T21:22:02.644Z,100038.08
2022-10-17T21:24:31.001Z,100037.47
2022-10-17T21:26:59.358Z,100028.99
2022-10-17T21:29:27.756Z,100031.52
2022-10-17T21:31:55.776Z,100032.96
2022-10-17T21:34:25.157Z,100029.59
2022-10-17T21:36:53.513Z,100035.17
2022-10-17T21:39:24.210Z,100035.90
2022-10-17T21:41:53.065Z,100034.38
2022-10-17T21:44:24.307Z,100040.02
2022-10-17T21:46:52.907Z,100042.88
2022-10-17T21:49:23.286Z,100045.52
2022-10-17T21:51:52.813Z,100045.00
2022-10-17T21:54:23.036Z,100049.17
2022-10-17T21:56:51.772Z,100048.27
2022-10-17T21:59:19.903Z,100049.05
2022-10-17T22:01:48.050Z,100049.71
2022-10-17T22:04:18.323Z,100047.30
2022-10-17T22:06:48.462Z,100045.56
2022-10-17T22:09:22.421Z,100047.79
2022-10-17T22:11:53.501Z,100045.57
2022-10-17T22:14:23.243Z,100049.20
2022-10-17T22:16:51.790Z,100044.80
2022-10-17T22:19:22.711Z,100045.13
2022-10-17T22:21:50.600Z,100044.88
2022-10-17T22:26:49.823Z,100044.08
2022-10-17T22:29:18.186Z,100043.23
2022-10-17T22:31:46.552Z,100038.67
2022-10-17T22:34:16.435Z,100041.41
2022-10-17T22:36:44.940Z,100035.23
2022-10-17T22:39:13.109Z,100037.39
2022-10-17T22:41:41.354Z,100034.19
2022-10-17T22:44:09.481Z,100034.48
2022-10-17T22:46:37.684Z,100036.92
2022-10-17T22:49:06.036Z,100035.25
2022-10-17T22:51:34.116Z,100035.77
2022-10-17T22:54:02.432Z,100038.39
2022-10-17T22:56:30.659Z,100036.91
2022-10-17T22:58:58.641Z,100032.84
2022-10-17T23:01:26.882Z,100032.70
2022-10-17T23:03:55.408Z,100036.62
2022-10-17T23:06:23.623Z,100034.19
2022-10-17T23:08:52.403Z,100038.23
2022-10-17T23:11:21.087Z,100031.82
2022-10-17T23:13:49.244Z,100029.29
2022-10-17T23:16:17.526Z,100030.83
2022-10-17T23:18:45.836Z,100020.96
2022-10-17T23:21:13.815Z,100019.45
2022-10-17T23:23:41.923Z,100021.22
2022-10-17T23:26:13.168Z,100026.15
2022-10-17T23:28:42.775Z,100025.06
2022-10-17T23:31:16.939Z,100024.44
2022-10-17T23:33:46.727Z,100019.38
2022-10-17T23:36:17.985Z,100017.30
2022-10-17T23:38:47.127Z,100013.64
2022-10-17T23:41:15.736Z,100011.89
2022-10-17T23:43:44.636Z,100011.86
2022-10-17T23:46:12.915Z,100009.67
2022-10-17T23:48:41.327Z,100006.19
2022-10-17T23:51:10.788Z,100006.59
2022-10-17T23:53:39.514Z,100005.25
2022-10-17T23:56:08.710Z,100009.05
2022-10-17T23:58:37.668Z,100003.85
